createdAt,value
2018-12-29T00:03:19.581Z,102452.11
2018-12-29T00:06:07.277Z,102456.34
2018-12-29T00:08:35.843Z,102452.02
2018-12-29T00:11:04.152Z,102443.80
2018-12-29T00:13:32.547Z,102444.73
2018-12-29T00:18:48.177Z,102452.57
2018-12-29T00:21:16.470Z,102448.66
2018-12-29T00:24:04.241Z,102437.88
2018-12-29T00:29:19.909Z,102437.19
2018-12-29T00:31:48.216Z,102436.25
2018-12-29T00:34:35.945Z,102425.80
2018-12-29T00:37:04.241Z,102429.81
2018-12-29T00:39:52.193Z,102433.50
2018-12-29T00:42:20.511Z,102434.75
2018-12-29T00:44:48.814Z,102431.20
2018-12-29T00:47:17.142Z,102427.67
2018-12-29T00:52:35.030Z,102432.28
2018-12-29T00:55:03.322Z,102439.52
2018-12-29T00:57:31.621Z,102439.45
2018-12-29T01:02:53.963Z,102447.61
2018-12-29T01:05:41.653Z,102444.22
2018-12-29T01:10:57.289Z,102443.28
2018-12-29T01:13:25.581Z,102440.88
2018-12-29T01:15:54.262Z,102440.44
2018-12-29T01:18:22.573Z,102442.12
2018-12-29T01:20:50.864Z,102450.28
2018-12-29T01:23:38.557Z,102454.95
2018-12-29T01:26:06.848Z,102451.96
2018-12-29T01:28:35.170Z,102458.03
2018-12-29T01:31:22.846Z,102450.52
2018-12-29T01:33:51.154Z,102450.66
2018-12-29T01:36:19.468Z,102447.67
2018-12-29T01:38:47.778Z,102446.97
2018-12-29T01:41:16.065Z,102452.33
2018-12-29T01:43:44.353Z,102448.09
2018-12-29T01:46:32.041Z,102455.79
2018-12-29T01:49:00.334Z,102458.11
2018-12-29T01:51:28.651Z,102455.33
2018-12-29T01:53:57.286Z,102456.49
2018-12-29T01:56:25.610Z,102446.51
2018-12-29T01:58:54.250Z,102447.06
2018-12-29T02:01:22.550Z,102454.75
2018-12-29T02:03:50.878Z,102455.88
2018-12-29T02:06:19.479Z,102464.88
2018-12-29T02:08:48.069Z,102460.27
2018-12-29T02:11:16.374Z,102462.97
2018-12-29T02:13:44.685Z,102459.42
2018-12-29T02:16:12.986Z,102461.05
2018-12-29T02:18:41.278Z,102460.91
2018-12-29T02:21:09.850Z,102465.20
2018-12-29T02:23:38.140Z,102460.59
2018-12-29T02:26:06.463Z,102469.27
2018-12-29T02:28:34.753Z,102460.07
2018-12-29T02:31:22.438Z,102469.73
2018-12-29T02:36:59.943Z,102467.03
2018-12-29T02:39:28.254Z,102465.49
2018-12-29T02:41:56.563Z,102468.66
2018-12-29T02:44:46.049Z,102465.20
2018-12-29T02:47:33.490Z,102471.13
2018-12-29T02:50:01.794Z,102467.20
2018-12-29T02:52:30.088Z,102469.41
2018-12-29T02:54:58.721Z,102468.89
2018-12-29T02:57:27.026Z,102465.95
2018-12-29T02:59:55.336Z,102463.81
2018-12-29T03:02:43.009Z,102464.13
2018-12-29T03:05:11.319Z,102466.05
2018-12-29T03:07:39.972Z,102464.59
2018-12-29T03:10:08.265Z,102465.03
2018-12-29T03:12:36.577Z,102460.59
2018-12-29T03:15:44.912Z,102457.74
2018-12-29T03:18:13.239Z,102459.25
2018-12-29T03:20:41.526Z,102465.02
2018-12-29T03:23:09.863Z,102460.55
2018-12-29T03:25:38.161Z,102462.93
2018-12-29T03:28:06.466Z,102462.88
2018-12-29T03:30:34.784Z,102463.25
2018-12-29T03:33:22.471Z,102467.08
2018-12-29T03:36:09.896Z,102465.20
2018-12-29T03:38:38.252Z,102459.98
2018-12-29T03:41:25.943Z,102461.48
2018-12-29T03:43:54.247Z,102467.95
2018-12-29T03:46:22.538Z,102467.35
2018-12-29T03:48:50.859Z,102466.34
2018-12-29T03:51:19.151Z,102455.59
2018-12-29T03:53:47.471Z,102459.42
2018-12-29T03:56:15.763Z,102460.22
2018-12-29T03:58:44.415Z,102452.19
2018-12-29T04:01:32.078Z,102452.63
2018-12-29T04:04:00.399Z,102441.02
2018-12-29T04:12:49.463Z,102438.90
2018-12-29T04:17:51.246Z,102441.20
2018-12-29T04:20:38.927Z,102439.89
2018-12-29T04:23:07.247Z,102428.59
2018-12-29T04:25:35.885Z,102432.98
2018-12-29T04:28:04.189Z,102421.69
2018-12-29T04:30:51.633Z,102423.61
2018-12-29T04:36:07.268Z,102416.70
2018-12-29T04:38:35.582Z,102407.38
2018-12-29T04:41:23.522Z,102408.22
2018-12-29T04:44:11.197Z,102408.55
2018-12-29T04:46:39.517Z,102402.39
2018-12-29T04:49:07.810Z,102412.41
2018-12-29T04:51:36.122Z,102405.70
2018-12-29T04:54:04.437Z,102400.79
2018-12-29T04:56:32.733Z,102395.88
2018-12-29T04:59:01.041Z,102390.98
2018-12-29T05:01:29.338Z,102392.98
2018-12-29T05:03:57.711Z,102399.36
2018-12-29T05:06:45.373Z,102400.11
2018-12-29T05:09:13.971Z,102406.88
2018-12-29T05:11:42.282Z,102406.05
2018-12-29T05:14:10.591Z,102404.59
2018-12-29T05:16:38.881Z,102403.14
2018-12-29T05:19:07.174Z,102399.51
2018-12-29T05:21:35.485Z,102395.56
2018-12-29T05:24:03.780Z,102403.17
2018-12-29T05:26:32.114Z,102406.63
2018-12-29T05:29:19.770Z,102414.09
2018-12-29T05:31:48.434Z,102413.16
2018-12-29T05:34:16.737Z,102413.80
2018-12-29T05:36:45.025Z,102419.31
2018-12-29T05:39:13.347Z,102414.49
2018-12-29T05:42:01.013Z,102408.66
2018-12-29T05:44:29.670Z,102416.55
2018-12-29T05:46:57.963Z,102414.20
2018-12-29T05:49:26.276Z,102422.47
2018-12-29T05:51:54.569Z,102427.70
2018-12-29T05:54:22.873Z,102428.39
2018-12-29T05:56:51.191Z,102433.94
2018-12-29T05:59:19.478Z,102441.23
2018-12-29T06:01:48.119Z,102440.01
2018-12-29T06:04:16.408Z,102444.06
2018-12-29T06:07:04.057Z,102447.84
2018-12-29T06:09:32.352Z,102450.17
2018-12-29T06:12:00.638Z,102455.54
2018-12-29T06:14:28.942Z,102455.59
2018-12-29T06:16:57.236Z,102458.99
2018-12-29T06:19:25.560Z,102458.38
2018-12-29T06:21:53.866Z,102463.52
2018-12-29T06:24:22.155Z,102458.30
2018-12-29T06:26:50.474Z,102460.53
2018-12-29T06:29:18.779Z,102465.76
2018-12-29T06:32:06.478Z,102458.23
2018-12-29T06:34:34.768Z,102452.86
2018-12-29T06:37:03.087Z,102454.17
2018-12-29T06:39:31.391Z,102453.77
2018-12-29T06:42:18.829Z,102452.78
2018-12-29T06:44:47.132Z,102454.92
2018-12-29T06:47:15.441Z,102455.48
2018-12-29T06:49:43.752Z,102460.79
2018-12-29T06:52:12.058Z,102454.48
2018-12-29T06:54:40.377Z,102457.73
2018-12-29T06:57:08.670Z,102453.34
2018-12-29T06:59:36.983Z,102450.27
2018-12-29T07:02:24.457Z,102458.63
2018-12-29T07:04:53.050Z,102458.93
2018-12-29T07:07:40.975Z,102463.92
2018-12-29T07:10:09.566Z,102464.39
2018-12-29T07:12:57.243Z,102462.41
2018-12-29T07:15:25.887Z,102464.27
2018-12-29T07:18:13.557Z,102463.10
2018-12-29T07:20:41.865Z,102467.25
2018-12-29T07:23:10.172Z,102469.17
2018-12-29T07:25:38.462Z,102475.16
2018-12-29T07:28:07.029Z,102472.95
2018-12-29T07:30:35.611Z,102474.55
2018-12-29T07:35:38.327Z,102486.16
2018-12-29T07:38:06.633Z,102487.94
2018-12-29T07:40:54.299Z,102490.78
2018-12-29T07:43:22.903Z,102477.27
2018-12-29T07:45:51.203Z,102484.97
2018-12-29T07:48:19.513Z,102485.11
2018-12-29T07:50:47.828Z,102480.08
2018-12-29T07:53:16.146Z,102477.31
2018-12-29T07:55:44.433Z,102477.22
2018-12-29T07:58:12.720Z,102482.91
2018-12-29T08:00:41.041Z,102482.59
2018-12-29T08:03:28.463Z,102478.77
2018-12-29T08:05:56.769Z,102484.75
2018-12-29T08:08:44.180Z,102482.45
2018-12-29T08:11:12.497Z,102477.53
2018-12-29T08:13:40.810Z,102476.91
2018-12-29T08:16:28.502Z,102476.91
2018-12-29T08:18:56.810Z,102475.52
2018-12-29T08:21:25.410Z,102466.77
2018-12-29T08:23:53.736Z,102466.52
2018-12-29T08:26:22.042Z,102461.14
2018-12-29T08:28:50.330Z,102460.89
2018-12-29T08:33:52.605Z,102457.96
2018-12-29T08:36:40.053Z,102455.66
2018-12-29T08:39:08.354Z,102452.11
2018-12-29T08:41:57.265Z,102449.21
2018-12-29T08:44:25.570Z,102443.52
2018-12-29T08:47:13.266Z,102433.11
2018-12-29T08:52:28.900Z,102425.63
2018-12-29T08:54:57.206Z,102423.69
2018-12-29T09:00:12.832Z,102419.70
2018-12-29T09:02:41.129Z,102429.92
2018-12-29T09:05:28.814Z,102424.31
2018-12-29T09:07:57.102Z,102427.52
2018-12-29T09:10:25.425Z,102427.89
2018-12-29T09:13:13.085Z,102432.28
2018-12-29T09:15:41.644Z,102428.52
2018-12-29T09:18:09.946Z,102428.61
2018-12-29T09:20:38.259Z,102428.98
2018-12-29T09:23:06.642Z,102429.92
2018-12-29T09:25:34.941Z,102430.69
2018-12-29T09:28:03.260Z,102436.61
2018-12-29T09:30:31.567Z,102436.05
2018-12-29T09:33:19.334Z,102435.82
2018-12-29T09:35:47.636Z,102431.28
2018-12-29T09:38:35.339Z,102424.58
2018-12-29T09:41:03.633Z,102426.94
2018-12-29T09:43:32.215Z,102421.84
2018-12-29T09:46:00.796Z,102414.67
2018-12-29T09:48:48.474Z,102417.22
2018-12-29T09:51:16.790Z,102403.50
2018-12-29T09:53:45.091Z,102401.62
2018-12-29T09:56:13.396Z,102390.61
2018-12-29T09:58:41.768Z,102383.69
2018-12-29T10:01:10.429Z,102376.11
2018-12-29T10:03:57.836Z,102375.47
2018-12-29T10:06:26.148Z,102366.07
2018-12-29T10:08:54.453Z,102363.92
2018-12-29T10:11:23.085Z,102360.73
2018-12-29T10:13:51.394Z,102347.09
2018-12-29T10:16:19.944Z,102342.53
2018-12-29T10:18:48.252Z,102327.85
2018-12-29T10:21:16.544Z,102317.13
2018-12-29T10:23:44.862Z,102321.63
2018-12-29T10:26:13.165Z,102306.03
2018-12-29T10:28:41.736Z,102302.47
2018-12-29T10:31:10.046Z,102298.55
2018-12-29T10:33:38.336Z,102299.41
2018-12-29T10:36:26.035Z,102305.96
2018-12-29T10:38:54.329Z,102296.61
2018-12-29T10:41:41.763Z,102292.31
2018-12-29T10:44:10.305Z,102287.61
2018-12-29T10:49:31.644Z,102284.47
2018-12-29T10:51:59.945Z,102290.19
2018-12-29T10:54:28.272Z,102287.49
2018-12-29T10:56:56.573Z,102291.69
2018-12-29T11:01:58.360Z,102280.29
2018-12-29T11:04:26.649Z,102282.55
2018-12-29T11:06:55.304Z,102291.44
2018-12-29T11:09:23.638Z,102285.45
2018-12-29T11:11:51.954Z,102289.94
2018-12-29T11:14:39.429Z,102281.13
2018-12-29T11:17:08.026Z,102270.82
2018-12-29T11:19:36.312Z,102267.83
2018-12-29T11:24:51.938Z,102244.89
2018-12-29T11:27:20.241Z,102232.53
2018-12-29T11:29:48.915Z,102233.37
2018-12-29T11:32:17.224Z,102224.92
2018-12-29T11:35:04.913Z,102219.11
2018-12-29T11:37:52.839Z,102217.98
2018-12-29T11:40:40.481Z,102228.47
2018-12-29T11:43:08.783Z,102232.15
2018-12-29T11:45:37.087Z,102227.93
2018-12-29T11:48:05.720Z,102234.09
2018-12-29T11:50:34.033Z,102240.46
2018-12-29T11:53:02.323Z,102240.27
2018-12-29T11:55:30.621Z,102243.84
2018-12-29T11:58:00.978Z,102232.89
2018-12-29T12:00:48.648Z,102218.57
2018-12-29T12:03:56.991Z,102203.48
2018-12-29T12:06:25.281Z,102183.53
2018-12-29T12:08:53.608Z,102166.18
2018-12-29T12:11:22.161Z,102164.87
2018-12-29T12:14:09.858Z,102187.56
2018-12-29T12:19:27.161Z,102189.61
2018-12-29T12:21:55.457Z,102176.41
2018-12-29T12:27:11.083Z,102186.89
2018-12-29T12:29:41.117Z,102187.55
2018-12-29T12:32:09.454Z,102184.08
2018-12-29T12:34:37.754Z,102185.39
2018-12-29T12:37:06.061Z,102170.41
2018-12-29T12:39:34.348Z,102171.59
2018-12-29T12:42:02.638Z,102186.23
2018-12-29T12:44:31.293Z,102182.55
2018-12-29T12:46:59.597Z,102181.05
2018-12-29T12:49:27.885Z,102181.70
2018-12-29T12:51:56.211Z,102159.05
2018-12-29T12:54:43.885Z,102146.29
2018-12-29T12:57:12.376Z,102139.26
2018-12-29T13:00:01.517Z,102142.64
2018-12-29T13:02:30.102Z,102157.62
2018-12-29T13:04:58.407Z,102174.01
2018-12-29T13:07:26.692Z,102171.13
2018-12-29T13:10:14.395Z,102179.00
2018-12-29T13:12:42.702Z,102142.55
2018-12-29T13:15:11.008Z,102124.66
2018-12-29T13:17:39.298Z,102122.98
2018-12-29T13:20:07.623Z,102109.56
2018-12-29T13:22:35.917Z,102106.58
2018-12-29T13:25:23.682Z,102094.86
2018-12-29T13:28:11.591Z,102084.25
2018-12-29T13:30:40.209Z,102090.36
2018-12-29T13:33:27.643Z,102088.05
2018-12-29T13:36:15.334Z,102089.19
2018-12-29T13:38:43.635Z,102089.08
2018-12-29T13:41:11.944Z,102071.11
2018-12-29T13:46:27.576Z,102050.96
2018-12-29T13:48:56.207Z,102058.16
2018-12-29T13:51:24.504Z,102036.73
2018-12-29T13:53:53.174Z,102043.06
2018-12-29T13:56:40.610Z,102033.01
2018-12-29T13:59:08.911Z,102021.68
2018-12-29T14:01:37.558Z,102024.14
2018-12-29T14:06:39.344Z,102034.95
2018-12-29T14:09:07.670Z,102030.37
2018-12-29T14:11:35.948Z,102024.73
2018-12-29T14:14:04.239Z,102040.11
2018-12-29T14:16:32.572Z,102020.00
2018-12-29T14:19:00.872Z,101996.39
2018-12-29T14:21:29.185Z,102001.24
2018-12-29T14:26:44.813Z,101994.38
2018-12-29T14:29:13.105Z,101978.27
2018-12-29T14:32:01.109Z,101997.11
2018-12-29T14:34:48.639Z,101974.18
2018-12-29T14:37:16.937Z,101973.79
2018-12-29T14:42:32.924Z,101986.06
2018-12-29T14:45:20.853Z,101983.80
2018-12-29T14:48:08.551Z,101981.61
2018-12-29T14:50:37.173Z,101954.83
2018-12-29T14:53:05.489Z,101937.41
2018-12-29T14:55:33.799Z,101950.26
2018-12-29T14:58:02.359Z,101932.02
2018-12-29T15:00:51.516Z,101940.44
2018-12-29T15:03:39.268Z,101936.23
2018-12-29T15:06:09.296Z,101926.06
2018-12-29T15:08:37.908Z,101932.26
2018-12-29T15:11:06.242Z,101912.40
2018-12-29T15:13:53.907Z,101910.09
2018-12-29T15:16:43.657Z,101920.59
2018-12-29T15:19:11.959Z,101907.11
2018-12-29T15:21:40.263Z,101902.99
2018-12-29T15:24:09.006Z,101894.33
2018-12-29T15:26:38.585Z,101919.35
2018-12-29T15:29:08.625Z,101907.28
2018-12-29T15:34:24.266Z,101989.02
2018-12-29T15:36:52.557Z,101998.27
2018-12-29T15:39:22.580Z,102007.58
2018-12-29T15:44:44.688Z,101969.69
2018-12-29T15:47:13.007Z,101944.98
2018-12-29T15:49:41.312Z,101928.90
2018-12-29T15:52:29.002Z,101925.44
2018-12-29T15:55:16.690Z,101920.20
2018-12-29T15:57:44.993Z,101914.13
2018-12-29T16:00:13.305Z,101931.63
2018-12-29T16:03:02.208Z,101922.34
2018-12-29T16:05:31.344Z,101907.58
2018-12-29T16:10:33.988Z,101921.81
2018-12-29T16:13:02.618Z,101908.91
2018-12-29T16:15:30.950Z,101912.56
2018-12-29T16:18:00.962Z,101901.97
2018-12-29T16:20:53.234Z,101893.84
2018-12-29T16:23:18.974Z,101889.43
2018-12-29T16:25:49.084Z,101895.78
2018-12-29T16:28:36.754Z,101879.78
2018-12-29T16:31:06.784Z,101887.20
2018-12-29T16:33:37.058Z,101869.64
2018-12-29T16:36:07.364Z,101874.22
2018-12-29T16:38:35.666Z,101861.70
2018-12-29T16:43:53.016Z,101875.75
2018-12-29T16:46:40.652Z,101865.63
2018-12-29T16:49:28.103Z,101867.78
2018-12-29T16:51:56.403Z,101867.66
2018-12-29T16:57:12.293Z,101868.81
2018-12-29T16:59:40.600Z,101859.45
2018-12-29T17:04:42.598Z,101866.16
2018-12-29T17:07:30.044Z,101864.02
2018-12-29T17:10:17.709Z,101862.88
2018-12-29T17:12:46.030Z,101860.69
2018-12-29T17:15:16.043Z,101858.62
2018-12-29T17:17:44.631Z,101872.12
2018-12-29T17:22:46.710Z,101853.38
2018-12-29T17:25:15.035Z,101843.66
2018-12-29T17:27:43.588Z,101836.44
2018-12-29T17:32:46.577Z,101842.79
2018-12-29T17:38:08.300Z,101839.81
2018-12-29T17:40:55.949Z,101838.58
2018-12-29T17:46:30.939Z,101842.75
2018-12-29T17:51:46.579Z,101835.95
2018-12-29T17:54:15.189Z,101819.64
2018-12-29T17:56:43.487Z,101822.53
2018-12-29T17:59:13.530Z,101821.02
2018-12-29T18:04:30.899Z,101823.33
2018-12-29T18:06:59.503Z,101831.19
2018-12-29T18:09:27.809Z,101814.16
2018-12-29T18:12:22.437Z,101830.16
2018-12-29T18:14:51.561Z,101829.47
2018-12-29T18:17:19.858Z,101817.83
2018-12-29T18:19:48.416Z,101808.03
2018-12-29T18:25:48.787Z,101822.11
2018-12-29T18:28:17.073Z,101815.02
2018-12-29T18:31:04.734Z,101814.70
2018-12-29T18:33:52.519Z,101823.67
2018-12-29T18:36:41.877Z,101811.78
2018-12-29T18:39:10.173Z,101805.38
2018-12-29T18:41:57.882Z,101795.16
2018-12-29T18:44:45.795Z,101798.48
2018-12-29T18:47:14.114Z,101793.87
2018-12-29T18:50:01.794Z,101803.29
2018-12-29T18:52:30.088Z,101811.25
2018-12-29T18:55:17.865Z,101795.00
2018-12-29T18:57:47.890Z,101814.67
2018-12-29T19:00:16.202Z,101807.05
2018-12-29T19:02:44.506Z,101801.44
2018-12-29T19:05:12.810Z,101797.03
2018-12-29T19:07:41.101Z,101793.93
2018-12-29T19:10:11.120Z,101789.08
2018-12-29T19:12:58.556Z,101797.66
2018-12-29T19:15:27.680Z,101799.35
2018-12-29T19:17:56.881Z,101810.35
2018-12-29T19:23:14.250Z,101812.50
2018-12-29T19:25:42.556Z,101804.06
2018-12-29T19:30:46.449Z,101794.69
2018-12-29T19:35:50.666Z,101786.52
2018-12-29T19:38:21.021Z,101781.84
2018-12-29T19:40:51.036Z,101779.58
2018-12-29T19:43:19.609Z,101764.22
2018-12-29T19:46:07.573Z,101774.38
2018-12-29T19:48:35.853Z,101769.75
2018-12-29T19:51:30.208Z,101768.58
2018-12-29T19:53:58.496Z,101765.27
2018-12-29T19:56:46.192Z,101757.17
2018-12-29T19:59:35.610Z,101759.02
2018-12-29T20:05:10.591Z,101769.72
2018-12-29T20:07:38.898Z,101767.58
2018-12-29T20:10:47.239Z,101763.99
2018-12-29T20:16:02.878Z,101761.16
2018-12-29T20:18:50.558Z,101760.15
2018-12-29T20:21:19.158Z,101759.23
2018-12-29T20:23:47.467Z,101762.56
2018-12-29T20:26:35.156Z,101763.08
2018-12-29T20:29:22.829Z,101758.66
2018-12-29T20:32:10.532Z,101767.50
2018-12-29T20:34:38.821Z,101760.58
2018-12-29T20:37:26.253Z,101762.25
2018-12-29T20:39:54.554Z,101767.62
2018-12-29T20:45:33.279Z,101768.14
2018-12-29T20:48:21.019Z,101781.89
2018-12-29T20:51:08.456Z,101793.84
2018-12-29T20:53:36.749Z,101794.32
2018-12-29T20:56:06.800Z,101813.55
2018-12-29T21:01:24.140Z,101815.30
2018-12-29T21:03:52.461Z,101810.97
2018-12-29T21:06:22.489Z,101810.92
2018-12-29T21:08:50.778Z,101806.72
2018-12-29T21:14:31.528Z,101818.62
2018-12-29T21:16:59.852Z,101817.31
2018-12-29T21:19:28.140Z,101829.03
2018-12-29T21:21:56.728Z,101838.49
2018-12-29T21:24:44.408Z,101835.68
2018-12-29T21:30:00.159Z,101850.62
2018-12-29T21:32:30.077Z,101864.14
2018-12-29T21:35:17.500Z,101854.47
2018-12-29T21:40:33.143Z,101858.27
2018-12-29T21:43:01.501Z,101842.20
2018-12-29T21:48:17.120Z,101830.72
2018-12-29T21:50:45.407Z,101833.34
2018-12-29T21:53:13.708Z,101836.66
2018-12-29T21:55:43.297Z,101835.71
2018-12-29T21:58:12.035Z,101852.77
2018-12-29T22:00:40.316Z,101844.69
2018-12-29T22:03:10.352Z,101845.25
2018-12-29T22:05:38.635Z,101845.52
2018-12-29T22:08:26.307Z,101846.69
2018-12-29T22:10:54.598Z,101837.98
2018-12-29T22:16:12.007Z,101845.23
2018-12-29T22:21:27.633Z,101845.02
2018-12-29T22:23:55.914Z,101847.31
2018-12-29T22:26:24.215Z,101845.99
2018-12-29T22:31:42.358Z,101852.44
2018-12-29T22:34:30.037Z,101868.67
2018-12-29T22:36:58.344Z,101869.27
2018-12-29T22:39:28.364Z,101880.39
2018-12-29T22:41:56.673Z,101887.09
2018-12-29T22:46:59.266Z,101883.11
2018-12-29T22:49:27.580Z,101889.88
2018-12-29T22:51:57.872Z,101892.70
2018-12-29T22:54:26.177Z,101892.93
2018-12-29T22:56:54.480Z,101894.51
2018-12-29T22:59:23.088Z,101894.03
2018-12-29T23:01:51.405Z,101892.84
2018-12-29T23:04:19.687Z,101884.97
2018-12-29T23:06:48.007Z,101892.27
2018-12-29T23:09:18.018Z,101891.62
2018-12-29T23:11:46.299Z,101889.86
2018-12-29T23:14:14.604Z,101897.34
2018-12-29T23:16:43.194Z,101901.19
2018-12-29T23:19:11.868Z,101901.19
2018-12-29T23:21:40.453Z,101911.09
2018-12-29T23:24:10.477Z,101908.27
2018-12-29T23:26:38.774Z,101906.73
2018-12-29T23:29:09.072Z,101911.16
2018-12-29T23:31:37.656Z,101899.81
2018-12-29T23:34:05.957Z,101903.63
2018-12-29T23:36:34.525Z,101910.82
2018-12-29T23:39:02.893Z,101914.13
2018-12-29T23:41:50.568Z,101923.45
2018-12-29T23:44:18.866Z,101922.02
2018-12-29T23:46:47.176Z,101935.05
2018-12-29T23:49:15.485Z,101936.45
2018-12-29T23:54:32.965Z,101962.02
2018-12-29T23:57:01.260Z,101963.30
2018-12-29T23:59:29.563Z,101978.84
